Main page
METAR-TAF:

METAR-TAF

Airports :

Podor Airport

Podor, Senegal

latitude: 16-39N, longitude: 014-58W, elevation: 6 m

Current weather observation

The report was made 52 minutes ago, at 00:00 UTC
Wind 2 kt from the West
Temperature 25°C
Humidity 44%
Pressure 1014 hPa
Visibility 10 km or more
no clouds below 1500 m and no cumulonimbus

METAR: GOSP 210000Z 28002KT CAVOK 25/12 Q1014

Time: 00:52 (00:52 UTC)


TAF: missing

Weather observations and forecasts of more than 4000 airports (METAR and TAF reports).

The available stations are represented by yellow and red dots on the map.

Hover mouse over dot to see the name of the station.

Then click to see weather observations and forecasts.

To change the map : click on the green buttons with a black cross to zoom in, on the green button with a dash to zoom out, or on the green arrows for adjacent maps.


METAR-TAF: